sensor_id;sensor_type;location;lat;lon;timestamp;P1;durP1;ratioP1;P2;durP2;ratioP2
19107;SDS011;9686;48.832;9.126;2023-09-19T00:00:05;0.63;;;0.60;;
19107;SDS011;9686;48.832;9.126;2023-09-19T00:02:32;0.30;;;0.30;;
19107;SDS011;9686;48.832;9.126;2023-09-19T00:04:58;1.17;;;0.60;;
19107;SDS011;9686;48.832;9.126;2023-09-19T00:07:23;2.97;;;0.73;;
19107;SDS011;9686;48.832;9.126;2023-09-19T00:09:48;3.43;;;0.73;;
19107;SDS011;9686;48.832;9.126;2023-09-19T00:12:13;1.27;;;0.47;;
19107;SDS011;9686;48.832;9.126;2023-09-19T00:14:39;0.60;;;0.50;;
19107;SDS011;9686;48.832;9.126;2023-09-19T00:17:05;0.73;;;0.60;;
19107;SDS011;9686;48.832;9.126;2023-09-19T00:19:33;0.47;;;0.43;;
19107;SDS011;9686;48.832;9.126;2023-09-19T00:22:02;0.87;;;0.50;;
19107;SDS011;9686;48.832;9.126;2023-09-19T00:24:27;0.53;;;0.53;;
19107;SDS011;9686;48.832;9.126;2023-09-19T00:26:53;0.50;;;0.43;;
19107;SDS011;9686;48.832;9.126;2023-09-19T00:29:20;0.50;;;0.50;;
19107;SDS011;9686;48.832;9.126;2023-09-19T00:31:46;0.53;;;0.47;;
19107;SDS011;9686;48.832;9.126;2023-09-19T00:34:11;0.67;;;0.50;;
19107;SDS011;9686;48.832;9.126;2023-09-19T00:36:37;0.60;;;0.60;;
19107;SDS011;9686;48.832;9.126;2023-09-19T00:39:04;0.87;;;0.40;;
19107;SDS011;9686;48.832;9.126;2023-09-19T00:41:31;0.83;;;0.63;;
19107;SDS011;9686;48.832;9.126;2023-09-19T00:43:57;0.63;;;0.40;;
19107;SDS011;9686;48.832;9.126;2023-09-19T00:46:22;1.57;;;0.87;;
19107;SDS011;9686;48.832;9.126;2023-09-19T00:48:47;0.50;;;0.50;;
19107;SDS011;9686;48.832;9.126;2023-09-19T00:51:13;0.60;;;0.43;;
19107;SDS011;9686;48.832;9.126;2023-09-19T00:53:39;1.60;;;0.53;;
19107;SDS011;9686;48.832;9.126;2023-09-19T00:56:07;1.50;;;0.50;;
19107;SDS011;9686;48.832;9.126;2023-09-19T00:58:32;0.90;;;0.50;;
19107;SDS011;9686;48.832;9.126;2023-09-19T01:01:00;0.77;;;0.77;;
19107;SDS011;9686;48.832;9.126;2023-09-19T01:03:26;0.70;;;0.70;;
19107;SDS011;9686;48.832;9.126;2023-09-19T01:05:52;0.57;;;0.50;;
19107;SDS011;9686;48.832;9.126;2023-09-19T01:08:18;0.50;;;0.50;;
19107;SDS011;9686;48.832;9.126;2023-09-19T01:10:50;1.03;;;0.50;;
19107;SDS011;9686;48.832;9.126;2023-09-19T01:13:22;0.40;;;0.40;;
19107;SDS011;9686;48.832;9.126;2023-09-19T01:15:56;3.70;;;0.73;;
19107;SDS011;9686;48.832;9.126;2023-09-19T01:18:46;4.43;;;0.70;;
19107;SDS011;9686;48.832;9.126;2023-09-19T01:21:28;0.57;;;0.47;;
19107;SDS011;9686;48.832;9.126;2023-09-19T01:27:06;1.40;;;0.60;;
19107;SDS011;9686;48.832;9.126;2023-09-19T01:29:38;0.67;;;0.67;;
19107;SDS011;9686;48.832;9.126;2023-09-19T01:32:05;0.80;;;0.50;;
19107;SDS011;9686;48.832;9.126;2023-09-19T01:34:53;0.20;;;0.20;;
19107;SDS011;9686;48.832;9.126;2023-09-19T01:37:22;0.40;;;0.40;;
19107;SDS011;9686;48.832;9.126;2023-09-19T01:39:53;0.30;;;0.30;;
19107;SDS011;9686;48.832;9.126;2023-09-19T01:45:04;2.83;;;0.73;;
19107;SDS011;9686;48.832;9.126;2023-09-19T01:48:15;0.50;;;0.50;;
19107;SDS011;9686;48.832;9.126;2023-09-19T01:50:55;0.60;;;0.37;;
19107;SDS011;9686;48.832;9.126;2023-09-19T01:53:26;0.50;;;0.50;;
19107;SDS011;9686;48.832;9.126;2023-09-19T01:55:53;0.87;;;0.50;;
19107;SDS011;9686;48.832;9.126;2023-09-19T01:58:21;2.63;;;0.50;;
19107;SDS011;9686;48.832;9.126;2023-09-19T02:00:52;0.73;;;0.70;;
19107;SDS011;9686;48.832;9.126;2023-09-19T02:03:20;1.03;;;0.70;;
19107;SDS011;9686;48.832;9.126;2023-09-19T02:05:49;0.50;;;0.50;;
19107;SDS011;9686;48.832;9.126;2023-09-19T02:08:19;1.03;;;0.50;;
19107;SDS011;9686;48.832;9.126;2023-09-19T02:10:45;2.53;;;0.50;;
19107;SDS011;9686;48.832;9.126;2023-09-19T02:13:15;2.20;;;0.60;;
19107;SDS011;9686;48.832;9.126;2023-09-19T02:15:42;0.30;;;0.30;;
19107;SDS011;9686;48.832;9.126;2023-09-19T02:18:09;0.40;;;0.40;;
19107;SDS011;9686;48.832;9.126;2023-09-19T02:20:34;0.30;;;0.30;;
19107;SDS011;9686;48.832;9.126;2023-09-19T02:22:59;0.30;;;0.30;;
19107;SDS011;9686;48.832;9.126;2023-09-19T02:25:25;0.47;;;0.47;;
19107;SDS011;9686;48.832;9.126;2023-09-19T02:27:51;0.80;;;0.50;;
19107;SDS011;9686;48.832;9.126;2023-09-19T02:30:19;0.63;;;0.57;;
19107;SDS011;9686;48.832;9.126;2023-09-19T02:32:46;2.20;;;0.63;;
19107;SDS011;9686;48.832;9.126;2023-09-19T02:35:11;0.80;;;0.53;;
19107;SDS011;9686;48.832;9.126;2023-09-19T02:37:39;1.30;;;0.50;;
19107;SDS011;9686;48.832;9.126;2023-09-19T02:40:05;0.50;;;0.50;;
19107;SDS011;9686;48.832;9.126;2023-09-19T02:42:43;1.20;;;0.70;;
19107;SDS011;9686;48.832;9.126;2023-09-19T02:45:13;0.50;;;0.47;;
19107;SDS011;9686;48.832;9.126;2023-09-19T02:47:40;0.40;;;0.37;;
19107;SDS011;9686;48.832;9.126;2023-09-19T02:50:05;2.70;;;0.60;;
19107;SDS011;9686;48.832;9.126;2023-09-19T02:52:31;0.60;;;0.60;;
19107;SDS011;9686;48.832;9.126;2023-09-19T02:54:56;1.10;;;0.60;;
19107;SDS011;9686;48.832;9.126;2023-09-19T02:57:22;0.63;;;0.50;;
19107;SDS011;9686;48.832;9.126;2023-09-19T02:59:49;0.40;;;0.40;;
19107;SDS011;9686;48.832;9.126;2023-09-19T03:02:14;0.47;;;0.30;;
19107;SDS011;9686;48.832;9.126;2023-09-19T03:04:40;0.67;;;0.37;;
19107;SDS011;9686;48.832;9.126;2023-09-19T03:07:06;0.70;;;0.53;;
19107;SDS011;9686;48.832;9.126;2023-09-19T03:09:32;2.80;;;0.77;;
19107;SDS011;9686;48.832;9.126;2023-09-19T03:11:57;1.07;;;0.43;;
19107;SDS011;9686;48.832;9.126;2023-09-19T03:14:24;0.80;;;0.53;;
19107;SDS011;9686;48.832;9.126;2023-09-19T03:16:49;0.30;;;0.30;;
19107;SDS011;9686;48.832;9.126;2023-09-19T03:19:17;0.90;;;0.50;;
19107;SDS011;9686;48.832;9.126;2023-09-19T03:21:42;0.30;;;0.30;;
19107;SDS011;9686;48.832;9.126;2023-09-19T03:24:07;0.70;;;0.60;;
19107;SDS011;9686;48.832;9.126;2023-09-19T03:26:33;0.90;;;0.60;;
19107;SDS011;9686;48.832;9.126;2023-09-19T03:28:58;0.40;;;0.40;;
19107;SDS011;9686;48.832;9.126;2023-09-19T03:31:24;0.50;;;0.50;;
19107;SDS011;9686;48.832;9.126;2023-09-19T03:33:49;7.30;;;0.87;;
19107;SDS011;9686;48.832;9.126;2023-09-19T03:36:14;0.50;;;0.40;;
19107;SDS011;9686;48.832;9.126;2023-09-19T03:38:40;1.50;;;0.67;;
19107;SDS011;9686;48.832;9.126;2023-09-19T03:41:05;0.57;;;0.57;;
19107;SDS011;9686;48.832;9.126;2023-09-19T03:43:31;0.40;;;0.30;;
19107;SDS011;9686;48.832;9.126;2023-09-19T03:46:00;0.30;;;0.30;;
19107;SDS011;9686;48.832;9.126;2023-09-19T03:48:27;0.60;;;0.50;;
19107;SDS011;9686;48.832;9.126;2023-09-19T03:50:52;0.60;;;0.50;;
19107;SDS011;9686;48.832;9.126;2023-09-19T03:53:19;1.33;;;0.40;;
19107;SDS011;9686;48.832;9.126;2023-09-19T03:55:45;0.40;;;0.40;;
19107;SDS011;9686;48.832;9.126;2023-09-19T03:58:11;0.63;;;0.50;;
19107;SDS011;9686;48.832;9.126;2023-09-19T04:00:36;0.87;;;0.70;;
19107;SDS011;9686;48.832;9.126;2023-09-19T04:03:01;0.97;;;0.70;;
19107;SDS011;9686;48.832;9.126;2023-09-19T04:05:30;0.80;;;0.70;;
19107;SDS011;9686;48.832;9.126;2023-09-19T04:07:56;0.97;;;0.70;;
19107;SDS011;9686;48.832;9.126;2023-09-19T04:10:21;0.80;;;0.80;;
19107;SDS011;9686;48.832;9.126;2023-09-19T04:12:53;1.67;;;0.60;;
19107;SDS011;9686;48.832;9.126;2023-09-19T04:15:19;0.60;;;0.60;;
19107;SDS011;9686;48.832;9.126;2023-09-19T04:17:47;0.63;;;0.40;;
19107;SDS011;9686;48.832;9.126;2023-09-19T04:20:12;1.27;;;1.17;;
19107;SDS011;9686;48.832;9.126;2023-09-19T04:22:38;0.93;;;0.87;;
19107;SDS011;9686;48.832;9.126;2023-09-19T04:25:06;1.73;;;0.60;;
19107;SDS011;9686;48.832;9.126;2023-09-19T04:27:32;0.83;;;0.83;;
19107;SDS011;9686;48.832;9.126;2023-09-19T04:29:58;1.00;;;0.90;;
19107;SDS011;9686;48.832;9.126;2023-09-19T04:32:24;1.43;;;0.83;;
19107;SDS011;9686;48.832;9.126;2023-09-19T04:34:53;1.00;;;0.90;;
19107;SDS011;9686;48.832;9.126;2023-09-19T04:37:18;1.20;;;0.97;;
19107;SDS011;9686;48.832;9.126;2023-09-19T04:39:44;0.53;;;0.50;;
19107;SDS011;9686;48.832;9.126;2023-09-19T04:42:10;0.83;;;0.70;;
19107;SDS011;9686;48.832;9.126;2023-09-19T04:44:39;0.60;;;0.60;;
19107;SDS011;9686;48.832;9.126;2023-09-19T04:47:05;0.77;;;0.77;;
19107;SDS011;9686;48.832;9.126;2023-09-19T04:49:30;0.63;;;0.63;;
19107;SDS011;9686;48.832;9.126;2023-09-19T04:51:56;1.20;;;0.90;;
19107;SDS011;9686;48.832;9.126;2023-09-19T04:54:21;0.70;;;0.70;;
19107;SDS011;9686;48.832;9.126;2023-09-19T04:56:47;1.43;;;1.23;;
19107;SDS011;9686;48.832;9.126;2023-09-19T04:59:12;2.37;;;0.73;;
19107;SDS011;9686;48.832;9.126;2023-09-19T05:01:37;1.23;;;1.13;;
19107;SDS011;9686;48.832;9.126;2023-09-19T05:04:03;1.17;;;1.10;;
19107;SDS011;9686;48.832;9.126;2023-09-19T05:06:30;2.00;;;1.00;;
19107;SDS011;9686;48.832;9.126;2023-09-19T05:08:55;1.33;;;1.20;;
19107;SDS011;9686;48.832;9.126;2023-09-19T05:11:21;1.90;;;1.30;;
19107;SDS011;9686;48.832;9.126;2023-09-19T05:13:46;1.83;;;1.37;;
19107;SDS011;9686;48.832;9.126;2023-09-19T05:16:12;1.10;;;0.97;;
19107;SDS011;9686;48.832;9.126;2023-09-19T05:18:37;1.07;;;0.90;;
19107;SDS011;9686;48.832;9.126;2023-09-19T05:21:02;4.40;;;1.10;;
19107;SDS011;9686;48.832;9.126;2023-09-19T05:23:28;3.43;;;0.80;;
19107;SDS011;9686;48.832;9.126;2023-09-19T05:25:53;2.13;;;1.40;;
19107;SDS011;9686;48.832;9.126;2023-09-19T05:28:19;0.70;;;0.70;;
19107;SDS011;9686;48.832;9.126;2023-09-19T05:30:45;3.27;;;1.07;;
19107;SDS011;9686;48.832;9.126;2023-09-19T05:33:11;1.60;;;1.20;;
19107;SDS011;9686;48.832;9.126;2023-09-19T05:35:36;0.90;;;0.90;;
19107;SDS011;9686;48.832;9.126;2023-09-19T05:38:04;0.87;;;0.87;;
19107;SDS011;9686;48.832;9.126;2023-09-19T05:40:33;1.40;;;1.30;;
19107;SDS011;9686;48.832;9.126;2023-09-19T05:42:59;1.83;;;0.90;;
19107;SDS011;9686;48.832;9.126;2023-09-19T05:45:25;2.30;;;0.93;;
19107;SDS011;9686;48.832;9.126;2023-09-19T05:47:51;5.57;;;1.30;;
19107;SDS011;9686;48.832;9.126;2023-09-19T05:50:20;2.70;;;1.60;;
19107;SDS011;9686;48.832;9.126;2023-09-19T05:52:52;3.43;;;1.40;;
19107;SDS011;9686;48.832;9.126;2023-09-19T05:55:18;2.00;;;1.47;;
19107;SDS011;9686;48.832;9.126;2023-09-19T05:57:49;1.37;;;1.17;;
19107;SDS011;9686;48.832;9.126;2023-09-19T06:00:16;1.10;;;1.00;;
19107;SDS011;9686;48.832;9.126;2023-09-19T06:02:43;3.23;;;1.30;;
19107;SDS011;9686;48.832;9.126;2023-09-19T06:05:09;1.07;;;0.97;;
19107;SDS011;9686;48.832;9.126;2023-09-19T06:07:35;1.50;;;1.40;;
19107;SDS011;9686;48.832;9.126;2023-09-19T06:10:05;1.23;;;1.13;;
19107;SDS011;9686;48.832;9.126;2023-09-19T06:12:32;1.30;;;1.20;;
19107;SDS011;9686;48.832;9.126;2023-09-19T06:15:02;1.77;;;1.10;;
19107;SDS011;9686;48.832;9.126;2023-09-19T06:17:28;5.03;;;1.30;;
19107;SDS011;9686;48.832;9.126;2023-09-19T06:19:53;3.43;;;1.20;;
19107;SDS011;9686;48.832;9.126;2023-09-19T06:22:20;1.10;;;1.00;;
19107;SDS011;9686;48.832;9.126;2023-09-19T06:24:46;1.70;;;1.60;;
19107;SDS011;9686;48.832;9.126;2023-09-19T06:27:12;3.90;;;1.30;;
19107;SDS011;9686;48.832;9.126;2023-09-19T06:29:37;1.90;;;1.57;;
19107;SDS011;9686;48.832;9.126;2023-09-19T06:32:12;1.63;;;1.43;;
19107;SDS011;9686;48.832;9.126;2023-09-19T06:34:37;3.40;;;1.20;;
19107;SDS011;9686;48.832;9.126;2023-09-19T06:37:03;1.67;;;1.40;;
19107;SDS011;9686;48.832;9.126;2023-09-19T06:39:30;3.23;;;1.40;;
19107;SDS011;9686;48.832;9.126;2023-09-19T06:41:56;1.93;;;1.20;;
19107;SDS011;9686;48.832;9.126;2023-09-19T06:44:21;3.60;;;1.40;;
19107;SDS011;9686;48.832;9.126;2023-09-19T06:46:49;2.23;;;1.03;;
19107;SDS011;9686;48.832;9.126;2023-09-19T06:49:16;1.30;;;1.20;;
19107;SDS011;9686;48.832;9.126;2023-09-19T06:51:42;1.90;;;1.40;;
19107;SDS011;9686;48.832;9.126;2023-09-19T06:54:08;1.30;;;0.97;;
19107;SDS011;9686;48.832;9.126;2023-09-19T06:56:33;2.03;;;1.80;;
19107;SDS011;9686;48.832;9.126;2023-09-19T06:58:58;3.80;;;1.40;;
19107;SDS011;9686;48.832;9.126;2023-09-19T07:01:24;1.47;;;1.20;;
19107;SDS011;9686;48.832;9.126;2023-09-19T07:03:50;1.60;;;1.50;;
19107;SDS011;9686;48.832;9.126;2023-09-19T07:06:15;3.03;;;1.30;;
19107;SDS011;9686;48.832;9.126;2023-09-19T07:08:41;1.47;;;1.37;;
19107;SDS011;9686;48.832;9.126;2023-09-19T07:11:06;2.73;;;1.63;;
19107;SDS011;9686;48.832;9.126;2023-09-19T07:13:31;5.50;;;1.53;;
19107;SDS011;9686;48.832;9.126;2023-09-19T07:15:58;1.70;;;1.00;;
19107;SDS011;9686;48.832;9.126;2023-09-19T07:18:24;1.43;;;1.30;;
19107;SDS011;9686;48.832;9.126;2023-09-19T07:20:50;1.50;;;1.40;;
19107;SDS011;9686;48.832;9.126;2023-09-19T07:23:18;2.27;;;1.80;;
19107;SDS011;9686;48.832;9.126;2023-09-19T07:25:47;5.50;;;1.57;;
19107;SDS011;9686;48.832;9.126;2023-09-19T07:28:14;1.43;;;1.10;;
19107;SDS011;9686;48.832;9.126;2023-09-19T07:30:40;4.37;;;1.23;;
19107;SDS011;9686;48.832;9.126;2023-09-19T07:33:09;2.80;;;1.37;;
19107;SDS011;9686;48.832;9.126;2023-09-19T07:35:37;1.47;;;1.10;;
19107;SDS011;9686;48.832;9.126;2023-09-19T07:38:07;1.33;;;1.13;;
19107;SDS011;9686;48.832;9.126;2023-09-19T07:40:32;1.53;;;1.43;;
19107;SDS011;9686;48.832;9.126;2023-09-19T07:42:58;1.13;;;0.90;;
19107;SDS011;9686;48.832;9.126;2023-09-19T07:45:29;1.27;;;1.03;;
19107;SDS011;9686;48.832;9.126;2023-09-19T07:47:57;1.10;;;1.00;;
19107;SDS011;9686;48.832;9.126;2023-09-19T07:50:23;1.33;;;1.13;;
19107;SDS011;9686;48.832;9.126;2023-09-19T07:52:51;1.27;;;1.10;;
19107;SDS011;9686;48.832;9.126;2023-09-19T07:55:17;1.63;;;0.80;;
19107;SDS011;9686;48.832;9.126;2023-09-19T07:57:44;2.87;;;1.27;;
19107;SDS011;9686;48.832;9.126;2023-09-19T08:00:10;2.63;;;1.17;;
19107;SDS011;9686;48.832;9.126;2023-09-19T08:02:37;1.47;;;1.00;;
19107;SDS011;9686;48.832;9.126;2023-09-19T08:05:03;0.93;;;0.93;;
19107;SDS011;9686;48.832;9.126;2023-09-19T08:07:31;8.10;;;1.70;;
19107;SDS011;9686;48.832;9.126;2023-09-19T08:10:01;1.03;;;0.90;;
19107;SDS011;9686;48.832;9.126;2023-09-19T08:12:26;2.13;;;0.97;;
19107;SDS011;9686;48.832;9.126;2023-09-19T08:14:51;0.97;;;0.93;;
19107;SDS011;9686;48.832;9.126;2023-09-19T08:17:17;2.00;;;1.13;;
19107;SDS011;9686;48.832;9.126;2023-09-19T08:19:42;1.73;;;0.70;;
19107;SDS011;9686;48.832;9.126;2023-09-19T08:22:10;2.53;;;0.97;;
19107;SDS011;9686;48.832;9.126;2023-09-19T08:24:35;1.73;;;1.00;;
19107;SDS011;9686;48.832;9.126;2023-09-19T08:27:01;1.77;;;1.20;;
19107;SDS011;9686;48.832;9.126;2023-09-19T08:29:29;1.63;;;1.37;;
19107;SDS011;9686;48.832;9.126;2023-09-19T08:31:59;0.93;;;0.87;;
19107;SDS011;9686;48.832;9.126;2023-09-19T08:34:24;2.40;;;1.20;;
19107;SDS011;9686;48.832;9.126;2023-09-19T08:36:53;6.07;;;0.90;;
19107;SDS011;9686;48.832;9.126;2023-09-19T08:39:22;1.10;;;0.80;;
19107;SDS011;9686;48.832;9.126;2023-09-19T08:41:48;3.63;;;0.90;;
19107;SDS011;9686;48.832;9.126;2023-09-19T08:44:13;1.50;;;0.73;;
19107;SDS011;9686;48.832;9.126;2023-09-19T08:46:41;0.90;;;0.63;;
19107;SDS011;9686;48.832;9.126;2023-09-19T08:52:16;0.83;;;0.67;;
19107;SDS011;9686;48.832;9.126;2023-09-19T08:54:47;0.90;;;0.73;;
19107;SDS011;9686;48.832;9.126;2023-09-19T08:57:16;1.63;;;0.97;;
19107;SDS011;9686;48.832;9.126;2023-09-19T08:59:46;5.23;;;0.70;;
19107;SDS011;9686;48.832;9.126;2023-09-19T09:02:12;2.67;;;1.10;;
19107;SDS011;9686;48.832;9.126;2023-09-19T09:04:43;0.60;;;0.60;;
19107;SDS011;9686;48.832;9.126;2023-09-19T09:07:10;0.57;;;0.57;;
19107;SDS011;9686;48.832;9.126;2023-09-19T09:09:37;3.70;;;0.70;;
19107;SDS011;9686;48.832;9.126;2023-09-19T09:12:07;0.70;;;0.70;;
19107;SDS011;9686;48.832;9.126;2023-09-19T09:14:35;5.07;;;0.80;;
19107;SDS011;9686;48.832;9.126;2023-09-19T09:17:00;0.53;;;0.53;;
19107;SDS011;9686;48.832;9.126;2023-09-19T09:19:26;0.60;;;0.60;;
19107;SDS011;9686;48.832;9.126;2023-09-19T09:21:51;0.90;;;0.73;;
19107;SDS011;9686;48.832;9.126;2023-09-19T09:24:26;0.93;;;0.67;;
19107;SDS011;9686;48.832;9.126;2023-09-19T09:26:53;0.93;;;0.93;;
19107;SDS011;9686;48.832;9.126;2023-09-19T09:29:36;0.60;;;0.60;;
19107;SDS011;9686;48.832;9.126;2023-09-19T09:34:47;0.90;;;0.87;;
19107;SDS011;9686;48.832;9.126;2023-09-19T09:37:15;1.50;;;0.80;;
19107;SDS011;9686;48.832;9.126;2023-09-19T09:39:51;1.63;;;0.90;;
19107;SDS011;9686;48.832;9.126;2023-09-19T09:42:28;4.53;;;1.00;;
19107;SDS011;9686;48.832;9.126;2023-09-19T09:45:19;2.87;;;0.90;;
19107;SDS011;9686;48.832;9.126;2023-09-19T09:47:57;0.53;;;0.50;;
19107;SDS011;9686;48.832;9.126;2023-09-19T09:53:28;6.20;;;0.80;;
19107;SDS011;9686;48.832;9.126;2023-09-19T09:56:03;1.80;;;0.90;;
19107;SDS011;9686;48.832;9.126;2023-09-19T09:58:38;0.93;;;0.90;;
19107;SDS011;9686;48.832;9.126;2023-09-19T10:01:15;4.20;;;0.90;;
19107;SDS011;9686;48.832;9.126;2023-09-19T10:03:41;0.87;;;0.63;;
19107;SDS011;9686;48.832;9.126;2023-09-19T10:06:15;0.60;;;0.60;;
19107;SDS011;9686;48.832;9.126;2023-09-19T10:09:09;1.03;;;0.60;;
19107;SDS011;9686;48.832;9.126;2023-09-19T10:11:48;0.63;;;0.60;;
19107;SDS011;9686;48.832;9.126;2023-09-19T10:14:28;1.50;;;0.80;;
19107;SDS011;9686;48.832;9.126;2023-09-19T10:16:56;1.03;;;0.77;;
19107;SDS011;9686;48.832;9.126;2023-09-19T10:19:38;0.97;;;0.60;;
19107;SDS011;9686;48.832;9.126;2023-09-19T10:22:09;1.00;;;0.73;;
19107;SDS011;9686;48.832;9.126;2023-09-19T10:24:37;0.93;;;0.60;;
19107;SDS011;9686;48.832;9.126;2023-09-19T10:27:04;1.63;;;0.97;;
19107;SDS011;9686;48.832;9.126;2023-09-19T10:29:33;1.30;;;0.83;;
19107;SDS011;9686;48.832;9.126;2023-09-19T10:32:01;1.70;;;0.80;;
19107;SDS011;9686;48.832;9.126;2023-09-19T10:34:31;0.67;;;0.60;;
19107;SDS011;9686;48.832;9.126;2023-09-19T10:37:00;1.47;;;0.80;;
19107;SDS011;9686;48.832;9.126;2023-09-19T10:39:30;3.43;;;1.07;;
19107;SDS011;9686;48.832;9.126;2023-09-19T10:41:57;2.00;;;1.03;;
19107;SDS011;9686;48.832;9.126;2023-09-19T10:44:30;0.63;;;0.63;;
19107;SDS011;9686;48.832;9.126;2023-09-19T10:46:57;0.93;;;0.60;;
19107;SDS011;9686;48.832;9.126;2023-09-19T10:49:22;0.40;;;0.40;;
19107;SDS011;9686;48.832;9.126;2023-09-19T10:51:49;0.60;;;0.60;;
19107;SDS011;9686;48.832;9.126;2023-09-19T10:54:21;0.77;;;0.77;;
19107;SDS011;9686;48.832;9.126;2023-09-19T10:56:51;0.97;;;0.70;;
19107;SDS011;9686;48.832;9.126;2023-09-19T10:59:19;0.97;;;0.70;;
19107;SDS011;9686;48.832;9.126;2023-09-19T11:01:50;1.90;;;0.53;;
19107;SDS011;9686;48.832;9.126;2023-09-19T11:07:07;1.70;;;0.93;;
19107;SDS011;9686;48.832;9.126;2023-09-19T11:09:55;0.60;;;0.60;;
19107;SDS011;9686;48.832;9.126;2023-09-19T11:15:00;0.60;;;0.43;;
19107;SDS011;9686;48.832;9.126;2023-09-19T11:17:31;1.33;;;0.70;;
19107;SDS011;9686;48.832;9.126;2023-09-19T11:30:34;0.60;;;0.60;;
19107;SDS011;9686;48.832;9.126;2023-09-19T11:38:56;1.20;;;0.80;;
19107;SDS011;9686;48.832;9.126;2023-09-19T11:41:36;1.70;;;0.77;;
19107;SDS011;9686;48.832;9.126;2023-09-19T11:46:48;0.63;;;0.50;;
19107;SDS011;9686;48.832;9.126;2023-09-19T11:49:17;0.90;;;0.70;;
19107;SDS011;9686;48.832;9.126;2023-09-19T11:51:48;0.75;;;0.70;;
19107;SDS011;9686;48.832;9.126;2023-09-19T11:54:16;1.20;;;0.73;;
19107;SDS011;9686;48.832;9.126;2023-09-19T11:56:53;0.90;;;0.80;;
19107;SDS011;9686;48.832;9.126;2023-09-19T11:59:20;0.60;;;0.60;;
19107;SDS011;9686;48.832;9.126;2023-09-19T12:01:51;1.40;;;0.70;;
19107;SDS011;9686;48.832;9.126;2023-09-19T12:04:39;0.40;;;0.40;;
19107;SDS011;9686;48.832;9.126;2023-09-19T12:09:40;2.35;;;0.80;;
19107;SDS011;9686;48.832;9.126;2023-09-19T12:12:08;3.35;;;0.90;;
19107;SDS011;9686;48.832;9.126;2023-09-19T12:14:36;1.60;;;0.93;;
19107;SDS011;9686;48.832;9.126;2023-09-19T12:17:04;1.33;;;0.70;;
19107;SDS011;9686;48.832;9.126;2023-09-19T12:19:30;1.58;;;1.00;;
19107;SDS011;9686;48.832;9.126;2023-09-19T12:21:59;2.10;;;0.80;;
19107;SDS011;9686;48.832;9.126;2023-09-19T12:24:30;0.63;;;0.60;;
19107;SDS011;9686;48.832;9.126;2023-09-19T12:27:05;1.37;;;0.73;;
19107;SDS011;9686;48.832;9.126;2023-09-19T12:29:32;1.07;;;0.80;;
19107;SDS011;9686;48.832;9.126;2023-09-19T12:32:08;0.60;;;0.60;;
19107;SDS011;9686;48.832;9.126;2023-09-19T12:34:33;0.83;;;0.70;;
19107;SDS011;9686;48.832;9.126;2023-09-19T12:37:13;0.90;;;0.63;;
19107;SDS011;9686;48.832;9.126;2023-09-19T12:39:48;0.70;;;0.70;;
19107;SDS011;9686;48.832;9.126;2023-09-19T12:42:16;0.83;;;0.70;;
19107;SDS011;9686;48.832;9.126;2023-09-19T12:44:44;0.60;;;0.57;;
19107;SDS011;9686;48.832;9.126;2023-09-19T12:47:15;0.57;;;0.57;;
19107;SDS011;9686;48.832;9.126;2023-09-19T12:52:44;2.00;;;0.67;;
19107;SDS011;9686;48.832;9.126;2023-09-19T12:55:21;1.23;;;0.50;;
19107;SDS011;9686;48.832;9.126;2023-09-19T12:58:21;0.60;;;0.57;;
19107;SDS011;9686;48.832;9.126;2023-09-19T13:00:45;4.23;;;1.50;;
19107;SDS011;9686;48.832;9.126;2023-09-19T13:05:50;1.03;;;0.73;;
19107;SDS011;9686;48.832;9.126;2023-09-19T13:11:05;0.87;;;0.87;;
19107;SDS011;9686;48.832;9.126;2023-09-19T13:14:13;0.73;;;0.70;;
19107;SDS011;9686;48.832;9.126;2023-09-19T13:17:05;0.87;;;0.60;;
19107;SDS011;9686;48.832;9.126;2023-09-19T13:19:45;2.67;;;0.70;;
19107;SDS011;9686;48.832;9.126;2023-09-19T13:25:05;0.80;;;0.80;;
19107;SDS011;9686;48.832;9.126;2023-09-19T13:27:33;1.47;;;0.80;;
19107;SDS011;9686;48.832;9.126;2023-09-19T13:29:59;0.60;;;0.60;;
19107;SDS011;9686;48.832;9.126;2023-09-19T13:32:25;0.60;;;0.60;;
19107;SDS011;9686;48.832;9.126;2023-09-19T13:34:50;1.07;;;0.80;;
19107;SDS011;9686;48.832;9.126;2023-09-19T13:37:16;0.60;;;0.60;;
19107;SDS011;9686;48.832;9.126;2023-09-19T13:39:43;0.80;;;0.80;;
19107;SDS011;9686;48.832;9.126;2023-09-19T13:42:12;1.37;;;0.70;;
19107;SDS011;9686;48.832;9.126;2023-09-19T13:44:38;0.70;;;0.70;;
19107;SDS011;9686;48.832;9.126;2023-09-19T13:47:03;1.10;;;1.00;;
19107;SDS011;9686;48.832;9.126;2023-09-19T13:49:34;2.93;;;0.80;;
19107;SDS011;9686;48.832;9.126;2023-09-19T13:52:00;1.70;;;0.53;;
19107;SDS011;9686;48.832;9.126;2023-09-19T13:54:28;1.30;;;1.03;;
19107;SDS011;9686;48.832;9.126;2023-09-19T13:56:54;0.80;;;0.77;;
19107;SDS011;9686;48.832;9.126;2023-09-19T13:59:19;2.43;;;0.77;;
19107;SDS011;9686;48.832;9.126;2023-09-19T14:01:48;0.53;;;0.53;;
19107;SDS011;9686;48.832;9.126;2023-09-19T14:04:13;1.40;;;0.80;;
19107;SDS011;9686;48.832;9.126;2023-09-19T14:06:41;2.30;;;0.80;;
19107;SDS011;9686;48.832;9.126;2023-09-19T14:09:07;0.63;;;0.50;;
19107;SDS011;9686;48.832;9.126;2023-09-19T14:11:33;1.03;;;0.90;;
19107;SDS011;9686;48.832;9.126;2023-09-19T14:13:58;3.17;;;1.03;;
19107;SDS011;9686;48.832;9.126;2023-09-19T14:16:24;1.13;;;0.87;;
19107;SDS011;9686;48.832;9.126;2023-09-19T14:18:49;0.97;;;0.70;;
19107;SDS011;9686;48.832;9.126;2023-09-19T14:21:14;2.23;;;0.83;;
19107;SDS011;9686;48.832;9.126;2023-09-19T14:23:40;1.17;;;0.77;;
19107;SDS011;9686;48.832;9.126;2023-09-19T14:26:08;1.20;;;0.77;;
19107;SDS011;9686;48.832;9.126;2023-09-19T14:28:34;1.00;;;0.80;;
19107;SDS011;9686;48.832;9.126;2023-09-19T14:31:06;1.23;;;0.70;;
19107;SDS011;9686;48.832;9.126;2023-09-19T14:33:32;1.97;;;1.37;;
19107;SDS011;9686;48.832;9.126;2023-09-19T14:35:58;6.93;;;1.27;;
19107;SDS011;9686;48.832;9.126;2023-09-19T14:38:23;0.83;;;0.60;;
19107;SDS011;9686;48.832;9.126;2023-09-19T14:40:48;0.77;;;0.67;;
19107;SDS011;9686;48.832;9.126;2023-09-19T14:43:15;0.90;;;0.63;;
19107;SDS011;9686;48.832;9.126;2023-09-19T14:45:40;1.17;;;1.00;;
19107;SDS011;9686;48.832;9.126;2023-09-19T14:48:06;0.40;;;0.40;;
19107;SDS011;9686;48.832;9.126;2023-09-19T14:50:32;0.83;;;0.83;;
19107;SDS011;9686;48.832;9.126;2023-09-19T14:52:58;0.93;;;0.67;;
19107;SDS011;9686;48.832;9.126;2023-09-19T14:55:26;0.73;;;0.70;;
19107;SDS011;9686;48.832;9.126;2023-09-19T14:57:54;1.97;;;0.67;;
19107;SDS011;9686;48.832;9.126;2023-09-19T15:00:27;0.50;;;0.50;;
19107;SDS011;9686;48.832;9.126;2023-09-19T15:02:52;0.50;;;0.47;;
19107;SDS011;9686;48.832;9.126;2023-09-19T15:05:18;0.70;;;0.70;;
19107;SDS011;9686;48.832;9.126;2023-09-19T15:07:44;2.83;;;1.60;;
19107;SDS011;9686;48.832;9.126;2023-09-19T15:10:09;3.13;;;1.10;;
19107;SDS011;9686;48.832;9.126;2023-09-19T15:12:35;1.30;;;0.70;;
19107;SDS011;9686;48.832;9.126;2023-09-19T15:15:02;0.60;;;0.50;;
19107;SDS011;9686;48.832;9.126;2023-09-19T15:17:30;0.53;;;0.53;;
19107;SDS011;9686;48.832;9.126;2023-09-19T15:19:55;0.40;;;0.40;;
19107;SDS011;9686;48.832;9.126;2023-09-19T15:22:21;2.40;;;0.70;;
19107;SDS011;9686;48.832;9.126;2023-09-19T15:24:47;0.53;;;0.53;;
19107;SDS011;9686;48.832;9.126;2023-09-19T15:27:12;0.67;;;0.53;;
19107;SDS011;9686;48.832;9.126;2023-09-19T15:29:38;1.37;;;0.60;;
19107;SDS011;9686;48.832;9.126;2023-09-19T15:32:04;1.37;;;0.53;;
19107;SDS011;9686;48.832;9.126;2023-09-19T15:34:29;0.90;;;0.90;;
19107;SDS011;9686;48.832;9.126;2023-09-19T15:36:55;0.60;;;0.57;;
19107;SDS011;9686;48.832;9.126;2023-09-19T15:39:20;1.00;;;0.90;;
19107;SDS011;9686;48.832;9.126;2023-09-19T15:41:47;0.50;;;0.50;;
19107;SDS011;9686;48.832;9.126;2023-09-19T15:44:17;1.70;;;0.70;;
19107;SDS011;9686;48.832;9.126;2023-09-19T15:46:44;0.40;;;0.40;;
19107;SDS011;9686;48.832;9.126;2023-09-19T15:49:10;0.50;;;0.50;;
19107;SDS011;9686;48.832;9.126;2023-09-19T15:51:35;0.93;;;0.47;;
19107;SDS011;9686;48.832;9.126;2023-09-19T15:54:01;1.00;;;0.77;;
19107;SDS011;9686;48.832;9.126;2023-09-19T15:56:32;0.57;;;0.57;;
19107;SDS011;9686;48.832;9.126;2023-09-19T15:58:59;0.50;;;0.50;;